Terminal Aerodrome Forecast
Issued by NWS

Home | Current Version | Previous Version | Text Only | Print | Product List | Glossary On
Versions: 1 2 3 4 5 6 7 8 9
348
FTUS46 KSTO 251729
TAFSAC
TAF
KSAC 251729Z 2518/2618 19005KT P6SM BKN200
     FM251900 24009KT P6SM FEW100 BKN150
     FM261100 17005KT P6SM OVC100=

USA.gov is the U.S. government's official web portal to all federal, state and local government web resources and services.